Santa Branca, Brazil
Current Conditions -  °F | °C
As of 10:00 AM on Monday 24 Nov 2014 (Local Time) from SBSJ Reporting Station
Haze Haze  
Wind Chill: 77°   Ceiling: 1000
Heat Index: 79°   Visibility: 2.5mi
Dew Point: 68°   Wind: 7mph
Humidity: 74%   Direction: 350°N
Pressure: 30.09"   Gusts: NA
Location:  23.4°S, 45.89°W
Report Text: SBSJ 241200Z 35006KT 4000 HZ BKN010 BKN018 25/20 Q1019
Loading
Personal Weather Stations






























Interactive Weather Map New forecast layout! Learn more

10-Day Weather Forecast

Advertisements
Track Severe Weather on mobile